Capt. Timmy Callais — WDD7434 — position and weather

sailwx.info

Track history (hours):
 
Tides and Currents Weather Stations Pressure Air Temp Water Temp Dewpoint Dewpoint Depression Visibility Wind Speed Wind Dir Waves Ship Positions

Capt. Timmy Callais

Owner: Florida Marine, LLC, Mandeville, LA. More information available from US FCC via Universal Licensing System and Coast Guard Vessel Documentation Center.

Last reported at 2018-Feb-22 18:27 UTC. Time now 2018-Feb-24 06:14 UTC.
Position N 29°35' W 094°25'.

Length 27 m; draft 2.8 m.

Type: Towing. MMSI: 367186360.

Date/timePositionNaut miles runAvg speedWind from/ knotsBaromVisibWave heightAir tempDewpointWater temp
2018-Feb-22 18:27N 29°35' W 094°25'3 4.6
2018-Feb-22 17:49N 29°36' W 094°22'2 5.3
2018-Feb-22 17:30N 29°37' W 094°20'1 1.9
2018-Feb-22 17:00N 29°38' W 094°19'1 2.9
2018-Feb-22 16:30N 29°38' W 094°18'3 6.0
2018-Feb-22 16:01N 29°40' W 094°15'3 6.4
2018-Feb-22 15:31N 29°41' W 094°11'2 3.8
2018-Feb-22 15:00N 29°42' W 094°09'3 5.9
2018-Feb-22 14:31N 29°43' W 094°06'3 6.1
2018-Feb-22 14:01N 29°45' W 094°04'3 6.0
2018-Feb-22 13:31N 29°47' W 094°01'3 5.7
2018-Feb-22 13:01N 29°49' W 093°59'3 6.1
2018-Feb-22 12:30N 29°52' W 093°56'4 7.6
2018-Feb-22 12:00N 29°55' W 093°54'4 7.5
2018-Feb-22 11:30N 29°58' W 093°51'3 6.2
2018-Feb-22 11:00N 29°59' W 093°48'4 7.2
2018-Feb-22 10:30N 30°01' W 093°45'3 6.0
2018-Feb-22 10:00N 30°03' W 093°42'3 6.3
2018-Feb-22 09:28N 30°04' W 093°38'2 2.8
2018-Feb-22 08:52N 30°04' W 093°36'14 5.0
2018-Feb-22 06:04N 30°05' W 093°20'0 3.5
2018-Feb-22 06:00N 30°05' W 093°20'2 4.1
2018-Feb-22 05:24N 30°07' W 093°20'1 0.1
2018-Feb-21 19:23N 30°08' W 093°19'0 0.0
2018-Feb-21 18:59N 30°08' W 093°19'0 0.0
2018-Feb-21 18:26N 30°08' W 093°19'0 0.0
2018-Feb-21 17:59N 30°08' W 093°19'0 0.0
2018-Feb-21 17:29N 30°08' W 093°19'0 0.0
2018-Feb-21 16:59N 30°08' W 093°19'0 0.0
2018-Feb-21 16:29N 30°08' W 093°19'0 0.0
2018-Feb-21 15:59N 30°08' W 093°19'0 0.0
2018-Feb-21 15:29N 30°08' W 093°19'0 0.0
2018-Feb-21 14:59N 30°08' W 093°19'0 0.0
2018-Feb-21 14:29N 30°08' W 093°19'0 0.0
2018-Feb-21 13:59N 30°08' W 093°19'0 0.0
2018-Feb-21 13:29N 30°08' W 093°19'0 0.0
2018-Feb-21 12:59N 30°08' W 093°19'0 0.0
2018-Feb-21 12:29N 30°08' W 093°19'0 0.0
2018-Feb-21 11:59N 30°08' W 093°19'0 0.2
2018-Feb-21 11:29N 30°08' W 093°19'1 1.9
2018-Feb-21 11:00N 30°08' W 093°20'0 0.7
2018-Feb-21 10:30N 30°07' W 093°20'2 3.2
2018-Feb-21 10:00N 30°06' W 093°20'2 3.7
2018-Feb-21 09:30N 30°04' W 093°21'2 3.2
2018-Feb-21 09:00N 30°04' W 093°22'2 4.2
2018-Feb-21 08:30N 30°04' W 093°25'2 4.6
2018-Feb-21 08:00N 30°04' W 093°27'2 4.6
2018-Feb-21 07:30N 30°04' W 093°30'2 4.8
2018-Feb-21 07:00N 30°04' W 093°33'3 5.1
2018-Feb-21 06:30N 30°04' W 093°36'3 5.7
2018-Feb-21 06:00N 30°04' W 093°39'3 5.4
2018-Feb-21 05:30N 30°03' W 093°42'3 5.4
2018-Feb-21 05:00N 30°01' W 093°45'3 6.5
2018-Feb-21 04:30N 29°59' W 093°47'3 6.3
2018-Feb-21 04:00N 29°58' W 093°51'3 6.0
2018-Feb-21 03:30N 29°56' W 093°53'3 6.8
2018-Feb-21 03:00N 29°53' W 093°55'3 6.0
2018-Feb-21 02:30N 29°51' W 093°57'2 4.7
2018-Feb-21 02:00N 29°49' W 093°59'2 4.3
2018-Feb-21 01:30N 29°47' W 094°01'2 3.9
2018-Feb-21 01:00N 29°46' W 094°03'2 4.7
2018-Feb-21 00:30N 29°45' W 094°05'2 4.7
2018-Feb-21 00:00N 29°43' W 094°07'2 4.8
2018-Feb-20 23:30N 29°42' W 094°09'2 4.5
2018-Feb-20 23:00N 29°41' W 094°11'2 4.9
2018-Feb-20 22:30N 29°40' W 094°14'2 3.9
2018-Feb-20 22:00N 29°39' W 094°16'2 4.0
2018-Feb-20 21:30N 29°38' W 094°18'2 4.5
2018-Feb-20 20:58N 29°37' W 094°20'2 4.6
2018-Feb-20 20:26N 29°36' W 094°23'2 3.1
2018-Feb-20 19:48N 29°35' W 094°25'8 0.8
2018-Feb-20 09:17N 29°30' W 094°33'0 0.8
2018-Feb-20 08:58N 29°30' W 094°33'2 0.9
2018-Feb-20 07:07N 29°29' W 094°35'0 1.9
2018-Feb-20 06:58N 29°29' W 094°35'14 2.0
2018-Feb-19 23:58N 29°29' W 094°52'3 6.5
2018-Feb-19 23:30N 29°31' W 094°53'3 6.5
2018-Feb-19 23:00N 29°34' W 094°55'3 6.4
2018-Feb-19 22:30N 29°37' W 094°57'3 6.3
2018-Feb-19 22:00N 29°40' W 094°59'3 6.9
2018-Feb-19 21:30N 29°42' W 095°01'2 4.8
2018-Feb-19 21:00N 29°44' W 095°03'2 0.9
2018-Feb-19 18:13N 29°46' W 095°05'2 4.7
2018-Feb-19 17:53N 29°45' W 095°06'1 0.1
2018-Feb-19 08:44N 29°44' W 095°08'0 0.0
2018-Feb-19 08:14N 29°44' W 095°08'0 0.0
2018-Feb-19 07:53N 29°44' W 095°08'0 0.5
2018-Feb-19 07:28N 29°44' W 095°08'3 6.6
2018-Feb-19 06:58N 29°46' W 095°05'2 0.5
2018-Feb-19 02:31N 29°44' W 095°07'0 4.8
2018-Feb-19 02:29N 29°44' W 095°07'1 0.0
2018-Feb-18 12:58N 29°44' W 095°07'5 3.7
2018-Feb-18 11:45N 29°47' W 095°04'0 0.0
2018-Feb-18 11:15N 29°47' W 095°04'3 0.1
2018-Feb-17 00:23N 29°45' W 095°06'  
Track history (hours):
 
Tides and Currents Weather Stations Pressure Air Temp Water Temp Dewpoint Dewpoint Depression Visibility Wind Speed Wind Dir Waves Ship Positions

Capt. Timmy Callais

Owner: Florida Marine, LLC, Mandeville, LA. More information available from US FCC via Universal Licensing System and Coast Guard Vessel Documentation Center.

Last reported at 2018-Feb-22 18:27 UTC. Time now 2018-Feb-24 06:14 UTC.
Position N 29°35' W 094°25'.

Length 27 m; draft 2.8 m.

Type: Towing. MMSI: 367186360.

Date/timePositionNaut miles runAvg speedWind from/ knotsBaromVisibWave heightAir tempDewpointWater temp
2018-Feb-22 18:27N 29°35' W 094°25'3 4.6
2018-Feb-22 17:49N 29°36' W 094°22'2 5.3
2018-Feb-22 17:30N 29°37' W 094°20'1 1.9
2018-Feb-22 17:00N 29°38' W 094°19'1 2.9
2018-Feb-22 16:30N 29°38' W 094°18'3 6.0
2018-Feb-22 16:01N 29°40' W 094°15'3 6.4
2018-Feb-22 15:31N 29°41' W 094°11'2 3.8
2018-Feb-22 15:00N 29°42' W 094°09'3 5.9
2018-Feb-22 14:31N 29°43' W 094°06'3 6.1
2018-Feb-22 14:01N 29°45' W 094°04'3 6.0
2018-Feb-22 13:31N 29°47' W 094°01'3 5.7
2018-Feb-22 13:01N 29°49' W 093°59'3 6.1
2018-Feb-22 12:30N 29°52' W 093°56'4 7.6
2018-Feb-22 12:00N 29°55' W 093°54'4 7.5
2018-Feb-22 11:30N 29°58' W 093°51'3 6.2
2018-Feb-22 11:00N 29°59' W 093°48'4 7.2
2018-Feb-22 10:30N 30°01' W 093°45'3 6.0
2018-Feb-22 10:00N 30°03' W 093°42'3 6.3
2018-Feb-22 09:28N 30°04' W 093°38'2 2.8
2018-Feb-22 08:52N 30°04' W 093°36'14 5.0
2018-Feb-22 06:04N 30°05' W 093°20'0 3.5
2018-Feb-22 06:00N 30°05' W 093°20'2 4.1
2018-Feb-22 05:24N 30°07' W 093°20'1 0.1
2018-Feb-21 19:23N 30°08' W 093°19'0 0.0
2018-Feb-21 18:59N 30°08' W 093°19'0 0.0
2018-Feb-21 18:26N 30°08' W 093°19'0 0.0
2018-Feb-21 17:59N 30°08' W 093°19'0 0.0
2018-Feb-21 17:29N 30°08' W 093°19'0 0.0
2018-Feb-21 16:59N 30°08' W 093°19'0 0.0
2018-Feb-21 16:29N 30°08' W 093°19'0 0.0
2018-Feb-21 15:59N 30°08' W 093°19'0 0.0
2018-Feb-21 15:29N 30°08' W 093°19'0 0.0
2018-Feb-21 14:59N 30°08' W 093°19'0 0.0
2018-Feb-21 14:29N 30°08' W 093°19'0 0.0
2018-Feb-21 13:59N 30°08' W 093°19'0 0.0
2018-Feb-21 13:29N 30°08' W 093°19'0 0.0
2018-Feb-21 12:59N 30°08' W 093°19'0 0.0
2018-Feb-21 12:29N 30°08' W 093°19'0 0.0
2018-Feb-21 11:59N 30°08' W 093°19'0 0.2
2018-Feb-21 11:29N 30°08' W 093°19'1 1.9
2018-Feb-21 11:00N 30°08' W 093°20'0 0.7
2018-Feb-21 10:30N 30°07' W 093°20'2 3.2
2018-Feb-21 10:00N 30°06' W 093°20'2 3.7
2018-Feb-21 09:30N 30°04' W 093°21'2 3.2
2018-Feb-21 09:00N 30°04' W 093°22'2 4.2
2018-Feb-21 08:30N 30°04' W 093°25'2 4.6
2018-Feb-21 08:00N 30°04' W 093°27'2 4.6
2018-Feb-21 07:30N 30°04' W 093°30'2 4.8
2018-Feb-21 07:00N 30°04' W 093°33'3 5.1
2018-Feb-21 06:30N 30°04' W 093°36'3 5.7
2018-Feb-21 06:00N 30°04' W 093°39'3 5.4
2018-Feb-21 05:30N 30°03' W 093°42'3 5.4
2018-Feb-21 05:00N 30°01' W 093°45'3 6.5
2018-Feb-21 04:30N 29°59' W 093°47'3 6.3
2018-Feb-21 04:00N 29°58' W 093°51'3 6.0
2018-Feb-21 03:30N 29°56' W 093°53'3 6.8
2018-Feb-21 03:00N 29°53' W 093°55'3 6.0
2018-Feb-21 02:30N 29°51' W 093°57'2 4.7
2018-Feb-21 02:00N 29°49' W 093°59'2 4.3
2018-Feb-21 01:30N 29°47' W 094°01'2 3.9
2018-Feb-21 01:00N 29°46' W 094°03'2 4.7
2018-Feb-21 00:30N 29°45' W 094°05'2 4.7
2018-Feb-21 00:00N 29°43' W 094°07'2 4.8
2018-Feb-20 23:30N 29°42' W 094°09'2 4.5
2018-Feb-20 23:00N 29°41' W 094°11'2 4.9
2018-Feb-20 22:30N 29°40' W 094°14'2 3.9
2018-Feb-20 22:00N 29°39' W 094°16'2 4.0
2018-Feb-20 21:30N 29°38' W 094°18'2 4.5
2018-Feb-20 20:58N 29°37' W 094°20'2 4.6
2018-Feb-20 20:26N 29°36' W 094°23'2 3.1
2018-Feb-20 19:48N 29°35' W 094°25'8 0.8
2018-Feb-20 09:17N 29°30' W 094°33'0 0.8
2018-Feb-20 08:58N 29°30' W 094°33'2 0.9
2018-Feb-20 07:07N 29°29' W 094°35'0 1.9
2018-Feb-20 06:58N 29°29' W 094°35'14 2.0
2018-Feb-19 23:58N 29°29' W 094°52'3 6.5
2018-Feb-19 23:30N 29°31' W 094°53'3 6.5
2018-Feb-19 23:00N 29°34' W 094°55'3 6.4
2018-Feb-19 22:30N 29°37' W 094°57'3 6.3
2018-Feb-19 22:00N 29°40' W 094°59'3 6.9
2018-Feb-19 21:30N 29°42' W 095°01'2 4.8
2018-Feb-19 21:00N 29°44' W 095°03'2 0.9
2018-Feb-19 18:13N 29°46' W 095°05'2 4.7
2018-Feb-19 17:53N 29°45' W 095°06'1 0.1
2018-Feb-19 08:44N 29°44' W 095°08'0 0.0
2018-Feb-19 08:14N 29°44' W 095°08'0 0.0
2018-Feb-19 07:53N 29°44' W 095°08'0 0.5
2018-Feb-19 07:28N 29°44' W 095°08'3 6.6
2018-Feb-19 06:58N 29°46' W 095°05'2 0.5
2018-Feb-19 02:31N 29°44' W 095°07'0 4.8
2018-Feb-19 02:29N 29°44' W 095°07'1 0.0
2018-Feb-18 12:58N 29°44' W 095°07'5 3.7
2018-Feb-18 11:45N 29°47' W 095°04'0 0.0
2018-Feb-18 11:15N 29°47' W 095°04'3 0.1
2018-Feb-17 00:23N 29°45' W 095°06'  

Dump ship's entire track history